X  Κλείσε Στοιχεία αεροπορικών μετεωρολογικών δεδομένων METAR     LZPP Piešťany Airport
θερμοκρασία
22°C θερμοκρασία
18°C Σημείο δρόσου
78% Υγρασία



Ανεμος
13 KM/H
8 MPH
4 M/S
7 KTS



350°
V
Τρέχουσες συνθήκες

Σαφή Σαφή
πίεση 1015.92 (hPa) - 30 (inHg)
Ορατότητα 6 (μίλι) - 9.7 (km)
Aεροδρόμιο
Κωδικός αεροδρομίου LZPP

Τοποθεσία: Piešťany Airport
Απόσταση: 31 (km)

Metar:
LZPP 230400Z 35007KT CAVOK 22/18 Q1016

ώρα: 23-07-2024 06:00 CEST